sensor_id;sensor_type;location;lat;lon;timestamp;pressure;altitude;pressure_sealevel;temperature;humidity
26865;BME280;40618;51.166;10.322;2023-03-26T00:01:06;96469.13;;;4.75;82.07
26865;BME280;40618;51.166;10.322;2023-03-26T00:03:34;96469.91;;;4.79;81.93
26865;BME280;40618;51.166;10.322;2023-03-26T00:06:11;96480.03;;;4.83;82.06
26865;BME280;40618;51.166;10.322;2023-03-26T00:08:40;96479.97;;;4.86;81.86
26865;BME280;40618;51.166;10.322;2023-03-26T00:11:08;96471.41;;;4.87;81.80
26865;BME280;40618;51.166;10.322;2023-03-26T00:13:35;96465.44;;;4.87;82.15
26865;BME280;40618;51.166;10.322;2023-03-26T00:16:02;96474.78;;;4.88;82.25
26865;BME280;40618;51.166;10.322;2023-03-26T00:18:28;96473.91;;;4.89;82.07
26865;BME280;40618;51.166;10.322;2023-03-26T00:20:59;96461.09;;;4.89;82.05
26865;BME280;40618;51.166;10.322;2023-03-26T00:23:28;96470.44;;;4.91;82.03
26865;BME280;40618;51.166;10.322;2023-03-26T00:25:54;96473.84;;;4.94;81.93
26865;BME280;40618;51.166;10.322;2023-03-26T00:28:21;96466.09;;;4.95;82.03
26865;BME280;40618;51.166;10.322;2023-03-26T00:30:49;96468.59;;;4.98;82.03
26865;BME280;40618;51.166;10.322;2023-03-26T00:33:22;96468.53;;;5.00;82.42
26865;BME280;40618;51.166;10.322;2023-03-26T00:35:52;96463.44;;;4.98;82.26
26865;BME280;40618;51.166;10.322;2023-03-26T00:38:20;96463.41;;;5.00;82.24
26865;BME280;40618;51.166;10.322;2023-03-26T00:40:49;96476.25;;;5.00;81.95
26865;BME280;40618;51.166;10.322;2023-03-26T00:43:17;96470.25;;;5.01;82.04
26865;BME280;40618;51.166;10.322;2023-03-26T00:45:52;96472.75;;;5.02;82.20
26865;BME280;40618;51.166;10.322;2023-03-26T00:48:20;96476.09;;;5.06;82.33
26865;BME280;40618;51.166;10.322;2023-03-26T00:50:47;96474.38;;;5.06;82.30
26865;BME280;40618;51.166;10.322;2023-03-26T00:53:15;96475.19;;;5.08;82.58
26865;BME280;40618;51.166;10.322;2023-03-26T00:55:43;96474.34;;;5.08;82.39
26865;BME280;40618;51.166;10.322;2023-03-26T00:58:11;96466.59;;;5.09;82.32
26865;BME280;40618;51.166;10.322;2023-03-26T01:00:45;96464.03;;;5.09;82.63
26865;BME280;40618;51.166;10.322;2023-03-26T01:03:15;96466.56;;;5.11;82.40
26865;BME280;40618;51.166;10.322;2023-03-26T01:05:46;96463.97;;;5.13;82.44
26865;BME280;40618;51.166;10.322;2023-03-26T01:08:27;96449.50;;;5.10;82.59
26865;BME280;40618;51.166;10.322;2023-03-26T01:10:56;96458.03;;;5.11;82.33
26865;BME280;40618;51.166;10.322;2023-03-26T01:13:35;96465.72;;;5.11;82.39
26865;BME280;40618;51.166;10.322;2023-03-26T01:16:05;96467.47;;;5.10;82.16
26865;BME280;40618;51.166;10.322;2023-03-26T01:18:36;96459.75;;;5.10;82.24
26865;BME280;40618;51.166;10.322;2023-03-26T01:21:06;96453.75;;;5.09;82.31
26865;BME280;40618;51.166;10.322;2023-03-26T01:24:03;96461.47;;;5.09;81.99
26865;BME280;40618;51.166;10.322;2023-03-26T01:26:50;96469.16;;;5.09;82.20
26865;BME280;40618;51.166;10.322;2023-03-26T01:38:31;96458.06;;;5.09;82.26
26865;BME280;40618;51.166;10.322;2023-03-26T01:47:11;96464.94;;;5.07;82.14
26865;BME280;40618;51.166;10.322;2023-03-26T01:49:38;96453.00;;;5.06;82.28
26865;BME280;40618;51.166;10.322;2023-03-26T01:52:19;96455.63;;;5.04;81.98
26865;BME280;40618;51.166;10.322;2023-03-26T01:54:49;96453.06;;;5.04;82.18
26865;BME280;40618;51.166;10.322;2023-03-26T01:57:33;96457.28;;;5.05;81.94
26865;BME280;40618;51.166;10.322;2023-03-26T02:00:17;96455.63;;;5.04;82.10
26865;BME280;40618;51.166;10.322;2023-03-26T02:08:32;96444.56;;;5.01;82.11
26865;BME280;40618;51.166;10.322;2023-03-26T02:11:10;96442.00;;;5.01;82.18
26865;BME280;40618;51.166;10.322;2023-03-26T02:13:39;96440.31;;;5.00;82.11
26865;BME280;40618;51.166;10.322;2023-03-26T02:16:09;96436.91;;;4.99;81.98
26865;BME280;40618;51.166;10.322;2023-03-26T02:18:38;96444.66;;;4.98;82.28
26865;BME280;40618;51.166;10.322;2023-03-26T02:21:12;96435.28;;;4.97;81.90
26865;BME280;40618;51.166;10.322;2023-03-26T02:23:45;96448.09;;;4.97;82.05
26865;BME280;40618;51.166;10.322;2023-03-26T02:26:18;96441.28;;;4.96;81.95
26865;BME280;40618;51.166;10.322;2023-03-26T02:28:44;96441.22;;;4.97;82.02
26865;BME280;40618;51.166;10.322;2023-03-26T02:31:10;96432.72;;;4.97;82.14
26865;BME280;40618;51.166;10.322;2023-03-26T02:33:38;96424.13;;;4.98;82.14
26865;BME280;40618;51.166;10.322;2023-03-26T02:36:04;96431.88;;;4.96;82.07
26865;BME280;40618;51.166;10.322;2023-03-26T02:38:33;96432.72;;;4.97;82.09
26865;BME280;40618;51.166;10.322;2023-03-26T02:41:02;96425.06;;;4.95;82.01
26865;BME280;40618;51.166;10.322;2023-03-26T02:43:28;96437.00;;;4.96;82.14
26865;BME280;40618;51.166;10.322;2023-03-26T02:45:55;96433.63;;;4.94;82.15
26865;BME280;40618;51.166;10.322;2023-03-26T02:48:21;96435.34;;;4.94;82.00
26865;BME280;40618;51.166;10.322;2023-03-26T02:50:47;96437.91;;;4.94;82.25
26865;BME280;40618;51.166;10.322;2023-03-26T02:53:18;96431.94;;;4.93;82.02
26865;BME280;40618;51.166;10.322;2023-03-26T02:55:46;96423.41;;;4.93;81.73
26865;BME280;40618;51.166;10.322;2023-03-26T02:58:12;96431.88;;;4.95;82.06
26865;BME280;40618;51.166;10.322;2023-03-26T03:00:42;96427.66;;;4.94;82.13
26865;BME280;40618;51.166;10.322;2023-03-26T03:03:08;96431.09;;;4.93;81.96
26865;BME280;40618;51.166;10.322;2023-03-26T03:05:34;96436.19;;;4.94;81.99
26865;BME280;40618;51.166;10.322;2023-03-26T03:08:02;96428.50;;;4.94;82.02
26865;BME280;40618;51.166;10.322;2023-03-26T03:10:30;96424.28;;;4.91;82.05
26865;BME280;40618;51.166;10.322;2023-03-26T03:12:57;96428.50;;;4.94;81.96
26865;BME280;40618;51.166;10.322;2023-03-26T03:15:24;96407.13;;;4.94;82.03
26865;BME280;40618;51.166;10.322;2023-03-26T03:17:49;96398.56;;;4.93;82.00
26865;BME280;40618;51.166;10.322;2023-03-26T03:20:16;96405.41;;;4.94;82.33
26865;BME280;40618;51.166;10.322;2023-03-26T03:22:42;96402.84;;;4.94;81.97
26865;BME280;40618;51.166;10.322;2023-03-26T03:25:08;96401.97;;;4.95;81.79
26865;BME280;40618;51.166;10.322;2023-03-26T03:27:39;96405.41;;;4.94;82.08
26865;BME280;40618;51.166;10.322;2023-03-26T03:30:08;96407.91;;;4.96;82.22
26865;BME280;40618;51.166;10.322;2023-03-26T03:32:35;96407.91;;;4.96;82.26
26865;BME280;40618;51.166;10.322;2023-03-26T03:35:01;96398.53;;;4.95;81.98
26865;BME280;40618;51.166;10.322;2023-03-26T03:37:27;96406.22;;;4.96;82.06
26865;BME280;40618;51.166;10.322;2023-03-26T03:39:52;96402.75;;;4.97;82.00
26865;BME280;40618;51.166;10.322;2023-03-26T03:42:18;96401.06;;;4.98;82.00
26865;BME280;40618;51.166;10.322;2023-03-26T03:44:43;96406.13;;;4.99;82.01
26865;BME280;40618;51.166;10.322;2023-03-26T03:47:09;96401.00;;;4.99;81.97
26865;BME280;40618;51.166;10.322;2023-03-26T03:49:38;96397.56;;;5.00;82.27
26865;BME280;40618;51.166;10.322;2023-03-26T03:52:05;96393.31;;;4.99;82.05
26865;BME280;40618;51.166;10.322;2023-03-26T03:54:30;96395.88;;;4.99;82.18
26865;BME280;40618;51.166;10.322;2023-03-26T03:56:56;96397.56;;;5.00;82.38
26865;BME280;40618;51.166;10.322;2023-03-26T03:59:22;96394.13;;;5.00;82.20
26865;BME280;40618;51.166;10.322;2023-03-26T04:01:48;96388.97;;;5.01;82.12
26865;BME280;40618;51.166;10.322;2023-03-26T04:04:15;96392.44;;;5.00;82.41
26865;BME280;40618;51.166;10.322;2023-03-26T04:06:41;96393.28;;;5.01;82.18
26865;BME280;40618;51.166;10.322;2023-03-26T04:09:07;96398.34;;;5.02;82.11
26865;BME280;40618;51.166;10.322;2023-03-26T04:11:34;96395.78;;;5.02;82.10
26865;BME280;40618;51.166;10.322;2023-03-26T04:14:00;96392.44;;;5.00;82.42
26865;BME280;40618;51.166;10.322;2023-03-26T04:16:26;96390.75;;;4.99;82.36
26865;BME280;40618;51.166;10.322;2023-03-26T04:18:52;96381.31;;;5.00;82.19
26865;BME280;40618;51.166;10.322;2023-03-26T04:21:18;96380.47;;;4.99;82.21
26865;BME280;40618;51.166;10.322;2023-03-26T04:23:44;96373.66;;;4.98;82.24
26865;BME280;40618;51.166;10.322;2023-03-26T04:26:14;96363.47;;;4.95;82.13
26865;BME280;40618;51.166;10.322;2023-03-26T04:28:54;96361.09;;;4.87;82.07
26865;BME280;40618;51.166;10.322;2023-03-26T04:31:24;96358.66;;;4.83;82.10
26865;BME280;40618;51.166;10.322;2023-03-26T04:33:58;96357.84;;;4.81;82.24
26865;BME280;40618;51.166;10.322;2023-03-26T04:36:31;96351.09;;;4.77;82.01
26865;BME280;40618;51.166;10.322;2023-03-26T04:39:00;96355.41;;;4.76;82.31
26865;BME280;40618;51.166;10.322;2023-03-26T04:41:28;96358.78;;;4.77;82.53
26865;BME280;40618;51.166;10.322;2023-03-26T04:43:56;96355.34;;;4.78;82.57
26865;BME280;40618;51.166;10.322;2023-03-26T04:46:26;96352.91;;;4.73;82.26
26865;BME280;40618;51.166;10.322;2023-03-26T04:48:53;96363.13;;;4.74;82.54
26865;BME280;40618;51.166;10.322;2023-03-26T04:51:23;96361.38;;;4.77;82.55
26865;BME280;40618;51.166;10.322;2023-03-26T04:53:57;96358.75;;;4.78;82.45
26865;BME280;40618;51.166;10.322;2023-03-26T04:56:35;96358.66;;;4.83;82.51
26865;BME280;40618;51.166;10.322;2023-03-26T04:59:10;96354.41;;;4.82;82.62
26865;BME280;40618;51.166;10.322;2023-03-26T05:01:42;96351.84;;;4.82;82.72
26865;BME280;40618;51.166;10.322;2023-03-26T05:04:11;96347.50;;;4.84;82.77
26865;BME280;40618;51.166;10.322;2023-03-26T05:06:39;96342.44;;;4.81;82.48
26865;BME280;40618;51.166;10.322;2023-03-26T05:09:06;96344.97;;;4.82;82.42
26865;BME280;40618;51.166;10.322;2023-03-26T05:11:32;96333.94;;;4.80;82.45
26865;BME280;40618;51.166;10.322;2023-03-26T05:13:58;96332.19;;;4.81;82.46
26865;BME280;40618;51.166;10.322;2023-03-26T05:16:24;96333.94;;;4.80;82.34
26865;BME280;40618;51.166;10.322;2023-03-26T05:18:50;96330.50;;;4.80;83.01
26865;BME280;40618;51.166;10.322;2023-03-26T05:21:16;96323.75;;;4.77;82.38
26865;BME280;40618;51.166;10.322;2023-03-26T05:23:42;96323.75;;;4.75;82.80
26865;BME280;40618;51.166;10.322;2023-03-26T05:26:08;96325.53;;;4.73;82.63
26865;BME280;40618;51.166;10.322;2023-03-26T05:28:34;96322.94;;;4.75;82.78
26865;BME280;40618;51.166;10.322;2023-03-26T05:31:01;96328.88;;;4.77;82.78
26865;BME280;40618;51.166;10.322;2023-03-26T05:33:27;96321.94;;;4.81;82.69
26865;BME280;40618;51.166;10.322;2023-03-26T05:36:04;96336.31;;;4.86;82.90
26865;BME280;40618;51.166;10.322;2023-03-26T05:38:32;96327.72;;;4.89;83.16
26865;BME280;40618;51.166;10.322;2023-03-26T05:40:59;96331.00;;;4.94;82.80
26865;BME280;40618;51.166;10.322;2023-03-26T05:43:27;96330.13;;;4.95;82.77
26865;BME280;40618;51.166;10.322;2023-03-26T05:45:53;96332.66;;;4.97;82.97
26865;BME280;40618;51.166;10.322;2023-03-26T05:48:18;96326.72;;;4.95;83.15
26865;BME280;40618;51.166;10.322;2023-03-26T05:50:47;96328.41;;;4.96;82.89
26865;BME280;40618;51.166;10.322;2023-03-26T05:53:14;96330.91;;;4.97;82.72
26865;BME280;40618;51.166;10.322;2023-03-26T05:55:43;96330.00;;;5.00;82.90
26865;BME280;40618;51.166;10.322;2023-03-26T05:58:15;96328.25;;;5.02;82.72
26865;BME280;40618;51.166;10.322;2023-03-26T06:00:41;96327.34;;;5.04;82.80
26865;BME280;40618;51.166;10.322;2023-03-26T06:03:13;96317.84;;;5.06;82.95
26865;BME280;40618;51.166;10.322;2023-03-26T06:05:40;96317.81;;;5.08;83.11
26865;BME280;40618;51.166;10.322;2023-03-26T06:08:07;96313.53;;;5.08;82.75
26865;BME280;40618;51.166;10.322;2023-03-26T06:10:37;96304.94;;;5.09;83.13
26865;BME280;40618;51.166;10.322;2023-03-26T06:13:03;96315.19;;;5.09;82.97
26865;BME280;40618;51.166;10.322;2023-03-26T06:15:29;96313.44;;;5.12;83.22
26865;BME280;40618;51.166;10.322;2023-03-26T06:17:54;96306.63;;;5.11;83.16
26865;BME280;40618;51.166;10.322;2023-03-26T06:20:20;96307.44;;;5.13;83.10
26865;BME280;40618;51.166;10.322;2023-03-26T06:22:45;96306.47;;;5.17;83.08
26865;BME280;40618;51.166;10.322;2023-03-26T06:25:11;96303.88;;;5.18;82.97
26865;BME280;40618;51.166;10.322;2023-03-26T06:27:37;96302.09;;;5.20;82.88
26865;BME280;40618;51.166;10.322;2023-03-26T06:30:03;96303.88;;;5.18;82.92
26865;BME280;40618;51.166;10.322;2023-03-26T06:32:29;96297.03;;;5.17;82.97
26865;BME280;40618;51.166;10.322;2023-03-26T06:34:54;96298.69;;;5.20;82.97
26865;BME280;40618;51.166;10.322;2023-03-26T06:37:20;96295.97;;;5.24;83.16
26865;BME280;40618;51.166;10.322;2023-03-26T06:39:45;96296.72;;;5.30;83.14
26865;BME280;40618;51.166;10.322;2023-03-26T06:42:11;96288.88;;;5.34;82.98
26865;BME280;40618;51.166;10.322;2023-03-26T06:44:37;96293.13;;;5.35;83.07
26865;BME280;40618;51.166;10.322;2023-03-26T06:47:02;96293.94;;;5.37;83.04
26865;BME280;40618;51.166;10.322;2023-03-26T06:49:28;96288.72;;;5.40;83.14
26865;BME280;40618;51.166;10.322;2023-03-26T06:51:53;96291.13;;;5.45;83.29
26865;BME280;40618;51.166;10.322;2023-03-26T06:54:19;96287.53;;;5.52;83.48
26865;BME280;40618;51.166;10.322;2023-03-26T06:56:45;96291.69;;;5.56;82.98
26865;BME280;40618;51.166;10.322;2023-03-26T06:59:11;96284.66;;;5.62;82.98
26865;BME280;40618;51.166;10.322;2023-03-26T07:01:36;96287.22;;;5.63;82.92
26865;BME280;40618;51.166;10.322;2023-03-26T07:04:02;96287.16;;;5.65;83.33
26865;BME280;40618;51.166;10.322;2023-03-26T07:06:27;96281.16;;;5.64;83.05
26865;BME280;40618;51.166;10.322;2023-03-26T07:08:53;96281.16;;;5.64;83.10
26865;BME280;40618;51.166;10.322;2023-03-26T07:11:19;96276.94;;;5.63;83.03
26865;BME280;40618;51.166;10.322;2023-03-26T07:13:49;96281.16;;;5.64;83.27
26865;BME280;40618;51.166;10.322;2023-03-26T07:16:15;96272.63;;;5.64;83.34
26865;BME280;40618;51.166;10.322;2023-03-26T07:18:41;96273.50;;;5.63;83.11
26865;BME280;40618;51.166;10.322;2023-03-26T07:21:07;96259.81;;;5.64;83.02
26865;BME280;40618;51.166;10.322;2023-03-26T07:23:34;96269.13;;;5.66;83.10
26865;BME280;40618;51.166;10.322;2023-03-26T07:26:22;96270.06;;;5.64;82.80
26865;BME280;40618;51.166;10.322;2023-03-26T07:29:17;96260.69;;;5.63;83.01
26865;BME280;40618;51.166;10.322;2023-03-26T07:35:22;96252.16;;;5.62;83.20
26865;BME280;40618;51.166;10.322;2023-03-26T07:44:48;96245.59;;;5.80;82.83
26865;BME280;40618;51.166;10.322;2023-03-26T07:47:31;96242.00;;;5.86;83.39
26865;BME280;40618;51.166;10.322;2023-03-26T07:49:58;96241.13;;;5.87;83.30
26865;BME280;40618;51.166;10.322;2023-03-26T07:52:25;96238.59;;;5.85;82.82
26865;BME280;40618;51.166;10.322;2023-03-26T07:54:52;96231.78;;;5.84;82.86
26865;BME280;40618;51.166;10.322;2023-03-26T08:00:22;96227.47;;;5.85;83.32
26865;BME280;40618;51.166;10.322;2023-03-26T08:05:52;96228.19;;;5.90;82.81
26865;BME280;40618;51.166;10.322;2023-03-26T08:08:42;96216.81;;;5.97;83.12
26865;BME280;40618;51.166;10.322;2023-03-26T08:17:18;96228.22;;;6.17;82.99
26865;BME280;40618;51.166;10.322;2023-03-26T08:20:18;96223.16;;;6.15;82.80
26865;BME280;40618;51.166;10.322;2023-03-26T08:22:49;96219.00;;;6.11;82.73
26865;BME280;40618;51.166;10.322;2023-03-26T08:25:28;96220.75;;;6.09;82.89
26865;BME280;40618;51.166;10.322;2023-03-26T08:28:14;96220.56;;;6.15;83.08
26865;BME280;40618;51.166;10.322;2023-03-26T08:30:52;96222.09;;;6.21;82.95
26865;BME280;40618;51.166;10.322;2023-03-26T08:33:21;96228.81;;;6.25;82.91
26865;BME280;40618;51.166;10.322;2023-03-26T08:35:51;96222.53;;;6.34;83.34
26865;BME280;40618;51.166;10.322;2023-03-26T08:38:18;96215.47;;;6.40;83.26
26865;BME280;40618;51.166;10.322;2023-03-26T08:43:39;96195.53;;;6.47;82.94
26865;BME280;40618;51.166;10.322;2023-03-26T08:46:44;96196.28;;;6.51;82.91
26865;BME280;40618;51.166;10.322;2023-03-26T08:50:09;96190.13;;;6.55;82.51
26865;BME280;40618;51.166;10.322;2023-03-26T09:08:22;96185.81;;;6.55;82.44
26865;BME280;40618;51.166;10.322;2023-03-26T09:28:53;96161.41;;;6.67;82.92
26865;BME280;40618;51.166;10.322;2023-03-26T09:52:22;96140.63;;;6.97;82.40
26865;BME280;40618;51.166;10.322;2023-03-26T10:09:36;96133.06;;;7.15;82.22
26865;BME280;40618;51.166;10.322;2023-03-26T10:24:34;96129.19;;;7.04;82.35
26865;BME280;40618;51.166;10.322;2023-03-26T10:30:16;96129.59;;;6.93;82.79
26865;BME280;40618;51.166;10.322;2023-03-26T10:33:22;96130.03;;;6.81;82.70
26865;BME280;40618;51.166;10.322;2023-03-26T10:56:24;96117.38;;;6.51;82.72
26865;BME280;40618;51.166;10.322;2023-03-26T10:58:54;96119.78;;;6.56;83.00
26865;BME280;40618;51.166;10.322;2023-03-26T11:07:51;96110.84;;;6.66;83.53
26865;BME280;40618;51.166;10.322;2023-03-26T11:10:52;96111.72;;;6.65;83.44
26865;BME280;40618;51.166;10.322;2023-03-26T11:13:37;96115.38;;;6.59;82.95
26865;BME280;40618;51.166;10.322;2023-03-26T11:16:22;96115.63;;;6.52;82.85
26865;BME280;40618;51.166;10.322;2023-03-26T11:18:56;96116.63;;;6.48;82.65
26865;BME280;40618;51.166;10.322;2023-03-26T11:27:26;96111.53;;;6.46;83.04
26865;BME280;40618;51.166;10.322;2023-03-26T11:33:25;96107.53;;;6.39;82.90
26865;BME280;40618;51.166;10.322;2023-03-26T11:36:00;96108.47;;;6.36;83.68
26865;BME280;40618;51.166;10.322;2023-03-26T11:38:45;96103.25;;;6.38;83.43
26865;BME280;40618;51.166;10.322;2023-03-26T11:41:15;96093.09;;;6.35;83.35
26865;BME280;40618;51.166;10.322;2023-03-26T11:43:48;96100.00;;;6.33;83.49
26865;BME280;40618;51.166;10.322;2023-03-26T11:46:21;96100.81;;;6.35;83.90
26865;BME280;40618;51.166;10.322;2023-03-26T11:49:03;96091.28;;;6.37;84.03
26865;BME280;40618;51.166;10.322;2023-03-26T11:51:36;96092.16;;;6.37;83.40
26865;BME280;40618;51.166;10.322;2023-03-26T11:54:05;96089.59;;;6.37;83.48
26865;BME280;40618;51.166;10.322;2023-03-26T11:56:48;96089.63;;;6.36;83.62
26865;BME280;40618;51.166;10.322;2023-03-26T11:59:37;96089.63;;;6.36;83.96
26865;BME280;40618;51.166;10.322;2023-03-26T12:04:49;96089.59;;;6.37;83.57
26865;BME280;40618;51.166;10.322;2023-03-26T12:07:52;96077.56;;;6.38;84.01
26865;BME280;40618;51.166;10.322;2023-03-26T12:10:32;96081.88;;;6.37;83.96
26865;BME280;40618;51.166;10.322;2023-03-26T12:16:20;96072.47;;;6.36;83.86
26865;BME280;40618;51.166;10.322;2023-03-26T12:19:00;96079.56;;;6.30;84.11
26865;BME280;40618;51.166;10.322;2023-03-26T12:21:59;96081.66;;;6.18;83.58
26865;BME280;40618;51.166;10.322;2023-03-26T12:24:34;96075.66;;;6.18;83.85
26865;BME280;40618;51.166;10.322;2023-03-26T12:30:07;96075.38;;;6.02;83.99
26865;BME280;40618;51.166;10.322;2023-03-26T12:32:40;96068.78;;;5.93;83.89
26865;BME280;40618;51.166;10.322;2023-03-26T12:35:23;96066.31;;;5.90;84.13
26865;BME280;40618;51.166;10.322;2023-03-26T12:37:55;96064.56;;;5.92;84.19
26865;BME280;40618;51.166;10.322;2023-03-26T12:40:47;96067.16;;;5.90;84.18
26865;BME280;40618;51.166;10.322;2023-03-26T12:43:47;96061.44;;;5.82;84.28
26865;BME280;40618;51.166;10.322;2023-03-26T12:46:21;96065.00;;;5.78;84.59
26865;BME280;40618;51.166;10.322;2023-03-26T12:48:53;96062.47;;;5.76;84.16
26865;BME280;40618;51.166;10.322;2023-03-26T12:54:25;96059.59;;;5.86;84.68
26865;BME280;40618;51.166;10.322;2023-03-26T13:02:51;96049.69;;;5.75;84.63
26865;BME280;40618;51.166;10.322;2023-03-26T13:09:03;96061.31;;;5.60;84.61
26865;BME280;40618;51.166;10.322;2023-03-26T13:11:52;96058.66;;;5.36;84.29
26865;BME280;40618;51.166;10.322;2023-03-26T13:14:44;96050.75;;;5.16;84.35
26865;BME280;40618;51.166;10.322;2023-03-26T13:17:39;96050.91;;;5.09;84.27
26865;BME280;40618;51.166;10.322;2023-03-26T13:23:06;96030.34;;;5.11;84.56
26865;BME280;40618;51.166;10.322;2023-03-26T13:25:42;96030.31;;;5.13;85.10
26865;BME280;40618;51.166;10.322;2023-03-26T13:28:52;96029.94;;;5.23;85.21
26865;BME280;40618;51.166;10.322;2023-03-26T13:36:57;96012.84;;;5.24;85.01
26865;BME280;40618;51.166;10.322;2023-03-26T13:43:12;96000.06;;;5.22;85.29
26865;BME280;40618;51.166;10.322;2023-03-26T13:51:55;95993.72;;;5.33;85.75
26865;BME280;40618;51.166;10.322;2023-03-26T13:54:30;95982.41;;;5.40;85.39
26865;BME280;40618;51.166;10.322;2023-03-26T13:57:20;95983.13;;;5.43;85.66
26865;BME280;40618;51.166;10.322;2023-03-26T14:00:03;95976.22;;;5.46;85.72
26865;BME280;40618;51.166;10.322;2023-03-26T14:02:48;95977.72;;;5.51;85.71
26865;BME280;40618;51.166;10.322;2023-03-26T14:05:32;95964.72;;;5.56;85.87
26865;BME280;40618;51.166;10.322;2023-03-26T14:08:09;95974.16;;;5.55;85.81
26865;BME280;40618;51.166;10.322;2023-03-26T14:10:46;95968.09;;;5.58;85.66
26865;BME280;40618;51.166;10.322;2023-03-26T14:13:23;95966.28;;;5.60;85.64
26865;BME280;40618;51.166;10.322;2023-03-26T14:16:03;95967.41;;;5.53;85.54
26865;BME280;40618;51.166;10.322;2023-03-26T14:18:51;95969.88;;;5.56;85.66
26865;BME280;40618;51.166;10.322;2023-03-26T14:24:33;95965.22;;;5.67;85.82
26865;BME280;40618;51.166;10.322;2023-03-26T14:33:21;95955.22;;;5.83;85.45
26865;BME280;40618;51.166;10.322;2023-03-26T14:36:13;95959.47;;;5.84;85.27
26865;BME280;40618;51.166;10.322;2023-03-26T14:42:01;95957.69;;;5.86;85.68
26865;BME280;40618;51.166;10.322;2023-03-26T14:47:25;95946.56;;;5.86;85.78
26865;BME280;40618;51.166;10.322;2023-03-26T14:53:26;95944.63;;;5.92;85.90
26865;BME280;40618;51.166;10.322;2023-03-26T14:59:05;95942.72;;;5.99;85.83
26865;BME280;40618;51.166;10.322;2023-03-26T15:10:14;95935.06;;;5.98;85.25
26865;BME280;40618;51.166;10.322;2023-03-26T15:19:22;95924.41;;;6.08;85.91
26865;BME280;40618;51.166;10.322;2023-03-26T15:31:07;95922.25;;;6.20;86.09
26865;BME280;40618;51.166;10.322;2023-03-26T15:56:49;95920.50;;;6.20;85.48
26865;BME280;40618;51.166;10.322;2023-03-26T15:59:36;95913.41;;;6.27;85.98
26865;BME280;40618;51.166;10.322;2023-03-26T16:04:53;95916.59;;;6.34;85.89
26865;BME280;40618;51.166;10.322;2023-03-26T16:10:50;95923.47;;;6.33;85.55
26865;BME280;40618;51.166;10.322;2023-03-26T16:18:40;95929.97;;;6.20;85.65
26865;BME280;40618;51.166;10.322;2023-03-26T16:21:34;95930.91;;;6.17;85.21
26865;BME280;40618;51.166;10.322;2023-03-26T16:29:19;95925.22;;;6.09;85.24
26865;BME280;40618;51.166;10.322;2023-03-26T16:35:00;95934.94;;;6.01;85.52
26865;BME280;40618;51.166;10.322;2023-03-26T16:49:15;95930.28;;;5.87;85.33
26865;BME280;40618;51.166;10.322;2023-03-26T16:52:01;95931.34;;;5.81;85.77
26865;BME280;40618;51.166;10.322;2023-03-26T16:54:59;95932.34;;;5.77;85.15
26865;BME280;40618;51.166;10.322;2023-03-26T17:03:56;95936.97;;;5.67;85.15
26865;BME280;40618;51.166;10.322;2023-03-26T17:06:50;95930.16;;;5.66;85.73
26865;BME280;40618;51.166;10.322;2023-03-26T17:15:45;95944.06;;;5.59;85.50
26865;BME280;40618;51.166;10.322;2023-03-26T17:18:37;95947.50;;;5.59;85.41
26865;BME280;40618;51.166;10.322;2023-03-26T17:21:40;95949.22;;;5.59;85.44
26865;BME280;40618;51.166;10.322;2023-03-26T17:27:00;95956.03;;;5.60;85.54
26865;BME280;40618;51.166;10.322;2023-03-26T17:32:52;95962.22;;;5.54;85.60
26865;BME280;40618;51.166;10.322;2023-03-26T17:35:43;95959.66;;;5.54;85.46
26865;BME280;40618;51.166;10.322;2023-03-26T17:40:53;95961.38;;;5.54;85.51
26865;BME280;40618;51.166;10.322;2023-03-26T17:46:02;95962.28;;;5.53;85.75
26865;BME280;40618;51.166;10.322;2023-03-26T17:48:35;95974.31;;;5.51;85.75
26865;BME280;40618;51.166;10.322;2023-03-26T17:51:34;95975.09;;;5.53;85.88
26865;BME280;40618;51.166;10.322;2023-03-26T17:54:07;95971.03;;;5.47;85.45
26865;BME280;40618;51.166;10.322;2023-03-26T17:56:41;95972.78;;;5.45;85.76
26865;BME280;40618;51.166;10.322;2023-03-26T17:59:07;95968.41;;;5.49;85.80
26865;BME280;40618;51.166;10.322;2023-03-26T18:01:43;95970.16;;;5.47;85.67
26865;BME280;40618;51.166;10.322;2023-03-26T18:04:18;95979.59;;;5.46;85.42
26865;BME280;40618;51.166;10.322;2023-03-26T18:18:48;95990.00;;;5.43;85.62
26865;BME280;40618;51.166;10.322;2023-03-26T18:21:21;95992.59;;;5.41;85.95
26865;BME280;40618;51.166;10.322;2023-03-26T18:24:04;96002.06;;;5.39;85.77
26865;BME280;40618;51.166;10.322;2023-03-26T18:26:35;95999.56;;;5.38;85.46
26865;BME280;40618;51.166;10.322;2023-03-26T18:29:28;96003.06;;;5.35;85.60
26865;BME280;40618;51.166;10.322;2023-03-26T18:32:01;96006.44;;;5.37;85.83
26865;BME280;40618;51.166;10.322;2023-03-26T18:34:49;96003.81;;;5.39;85.96
26865;BME280;40618;51.166;10.322;2023-03-26T18:37:26;96006.28;;;5.42;86.05
26865;BME280;40618;51.166;10.322;2023-03-26T18:40:01;96004.53;;;5.42;85.67
26865;BME280;40618;51.166;10.322;2023-03-26T18:42:40;96008.84;;;5.42;85.86
26865;BME280;40618;51.166;10.322;2023-03-26T18:45:33;96005.50;;;5.40;85.65
26865;BME280;40618;51.166;10.322;2023-03-26T18:48:09;96003.91;;;5.36;85.65
26865;BME280;40618;51.166;10.322;2023-03-26T18:50:39;96001.53;;;5.30;85.65
26865;BME280;40618;51.166;10.322;2023-03-26T18:53:07;96010.19;;;5.27;85.90
26865;BME280;40618;51.166;10.322;2023-03-26T18:55:39;96012.78;;;5.25;85.69
26865;BME280;40618;51.166;10.322;2023-03-26T18:58:31;96006.03;;;5.23;85.53
26865;BME280;40618;51.166;10.322;2023-03-26T19:01:01;96016.28;;;5.23;85.79
26865;BME280;40618;51.166;10.322;2023-03-26T19:03:37;96013.72;;;5.23;85.90
26865;BME280;40618;51.166;10.322;2023-03-26T19:06:10;96010.38;;;5.21;85.87
26865;BME280;40618;51.166;10.322;2023-03-26T19:08:40;96013.84;;;5.20;85.84
26865;BME280;40618;51.166;10.322;2023-03-26T19:11:10;96008.69;;;5.20;85.87
26865;BME280;40618;51.166;10.322;2023-03-26T19:13:38;96012.03;;;5.22;85.81
26865;BME280;40618;51.166;10.322;2023-03-26T19:16:26;96025.69;;;5.24;86.18